Time;durP1;ratioP1;P1;durP2;ratioP2;P2;SDS_P1;SDS_P2;PMS_P1;PMS_P2;Temp;Humidity;BMP_temperature;BMP_pressure;BME280_temperature;BME280_humidity;BME280_pressure;Samples;Min_cycle;Max_cycle;Signal;HPM_P1;HPM_P2
2022/11/27 00:00:26;;;;;;;28.48;10.50;;;;;;;;;;5049246;28;20150;-66
2022/11/27 00:02:52;;;;;;;32.75;10.50;;;;;;;;;;5043635;28;20040;-66
2022/11/27 00:05:19;;;;;;;37.47;12.23;;;;;;;;;;5045078;28;20112;-66
2022/11/27 00:07:45;;;;;;;28.00;10.10;;;;;;;;;;5049853;28;20044;-66
2022/11/27 00:10:11;;;;;;;27.15;11.35;;;;;;;;;;5020972;28;20583;-66
2022/11/27 00:12:37;;;;;;;40.08;10.63;;;;;;;;;;5046430;28;20089;-66
2022/11/27 00:15:04;;;;;;;31.35;10.13;;;;;;;;;;5047884;28;20037;-66
2022/11/27 00:17:30;;;;;;;32.80;11.85;;;;;;;;;;5049227;28;20063;-66
2022/11/27 00:19:56;;;;;;;31.63;11.23;;;;;;;;;;5047629;28;20800;-66
2022/11/27 00:22:22;;;;;;;27.58;10.57;;;;;;;;;;5050277;28;20792;-65
2022/11/27 00:24:48;;;;;;;37.00;11.38;;;;;;;;;;5049790;28;20044;-66
2022/11/27 00:27:14;;;;;;;33.83;11.70;;;;;;;;;;5050092;28;20071;-66
2022/11/27 00:29:40;;;;;;;30.42;10.73;;;;;;;;;;5050163;28;20080;-66
2022/11/27 00:32:07;;;;;;;34.08;10.25;;;;;;;;;;5053987;28;20063;-67
2022/11/27 00:34:33;;;;;;;36.22;11.98;;;;;;;;;;5052179;28;20048;-66
2022/11/27 00:36:59;;;;;;;30.92;10.27;;;;;;;;;;5051011;28;20044;-67
2022/11/27 00:39:26;;;;;;;31.80;9.70;;;;;;;;;;5047268;28;20089;-66
2022/11/27 00:41:52;;;;;;;34.53;12.98;;;;;;;;;;5051213;28;20056;-67
2022/11/27 00:44:18;;;;;;;32.53;12.85;;;;;;;;;;5053969;28;20075;-67
2022/11/27 00:46:45;;;;;;;33.08;14.18;;;;;;;;;;5045691;28;20135;-67
2022/11/27 00:49:12;;;;;;;38.40;15.80;;;;;;;;;;5049194;28;20048;-67
2022/11/27 00:51:38;;;;;;;38.40;17.98;;;;;;;;;;5052275;28;20559;-67
2022/11/27 00:54:05;;;;;;;42.15;18.10;;;;;;;;;;5049471;28;20108;-67
2022/11/27 00:56:33;;;;;;;34.50;18.10;;;;;;;;;;5051665;28;20048;-67
2022/11/27 00:58:59;;;;;;;38.65;18.48;;;;;;;;;;5048351;28;20045;-66
2022/11/27 01:01:31;;;;;;;37.25;18.23;;;;;;;;;;5052176;28;20044;-66
2022/11/27 01:03:58;;;;;;;40.00;17.15;;;;;;;;;;5047515;28;20088;-67
2022/11/27 01:06:24;;;;;;;41.03;16.88;;;;;;;;;;5047471;28;20047;-66
2022/11/27 01:08:50;;;;;;;35.92;16.65;;;;;;;;;;5043867;28;20114;-66
2022/11/27 01:11:24;;;;;;;34.08;15.68;;;;;;;;;;5044344;28;20490;-66
2022/11/27 01:13:50;;;;;;;33.45;14.68;;;;;;;;;;5050320;28;20062;-66
2022/11/27 01:16:18;;;;;;;47.58;17.80;;;;;;;;;;5049345;28;20048;-67
2022/11/27 01:18:45;;;;;;;32.10;14.00;;;;;;;;;;5047319;28;20045;-68
2022/11/27 01:21:12;;;;;;;29.23;14.82;;;;;;;;;;5045396;28;20054;-68
2022/11/27 01:23:38;;;;;;;27.95;12.48;;;;;;;;;;5046080;28;20068;-67
2022/11/27 01:26:05;;;;;;;40.40;12.98;;;;;;;;;;5051265;28;20051;-67
2022/11/27 01:28:32;;;;;;;29.92;11.57;;;;;;;;;;5045111;28;20127;-68
2022/11/27 01:30:58;;;;;;;26.95;10.52;;;;;;;;;;5048270;28;20879;-67
2022/11/27 01:33:25;;;;;;;33.72;11.65;;;;;;;;;;5048999;28;20765;-67
2022/11/27 01:35:58;;;;;;;26.08;10.48;;;;;;;;;;5048574;28;20182;-67
2022/11/27 01:38:24;;;;;;;28.95;11.57;;;;;;;;;;5043300;28;20052;-67
2022/11/27 01:41:20;;;;;;;27.00;11.48;;;;;;;;;;5041102;28;20067;-67
2022/11/27 01:43:47;;;;;;;31.63;11.93;;;;;;;;;;5022806;28;20060;-67
2022/11/27 01:46:13;;;;;;;33.72;11.35;;;;;;;;;;5040687;28;20591;-67
2022/11/27 01:48:39;;;;;;;27.10;11.68;;;;;;;;;;5026496;28;20048;-67
2022/11/27 01:51:05;;;;;;;25.42;10.95;;;;;;;;;;5032684;28;20044;-67
2022/11/27 01:53:33;;;;;;;28.17;11.35;;;;;;;;;;5035766;28;20268;-66
2022/11/27 01:56:00;;;;;;;28.95;11.57;;;;;;;;;;5045132;28;20067;-67
2022/11/27 01:58:28;;;;;;;38.33;13.27;;;;;;;;;;5041927;28;20049;-66
2022/11/27 02:00:54;;;;;;;29.83;10.73;;;;;;;;;;5046276;28;20082;-66
2022/11/27 02:03:21;;;;;;;24.35;11.75;;;;;;;;;;5047009;28;20044;-66
2022/11/27 02:05:47;;;;;;;31.90;11.45;;;;;;;;;;5048152;28;20033;-68
2022/11/27 02:08:14;;;;;;;26.95;11.55;;;;;;;;;;5044453;28;20040;-66
2022/11/27 02:10:47;;;;;;;28.98;11.65;;;;;;;;;;5047570;28;20104;-67
2022/11/27 02:13:25;;;;;;;25.58;11.30;;;;;;;;;;5050252;28;20083;-66
2022/11/27 02:15:57;;;;;;;22.85;10.23;;;;;;;;;;5048496;28;20048;-66
2022/11/27 02:18:38;;;;;;;23.95;10.57;;;;;;;;;;5047554;28;20036;-67
2022/11/27 02:21:16;;;;;;;20.83;10.05;;;;;;;;;;5048584;28;20045;-67
2022/11/27 02:24:01;;;;;;;25.92;10.00;;;;;;;;;;5042579;28;20048;-66
2022/11/27 02:26:45;;;;;;;27.52;10.43;;;;;;;;;;5048761;28;20112;-67
2022/11/27 02:29:13;;;;;;;28.92;9.95;;;;;;;;;;5045339;28;20049;-66
2022/11/27 02:31:57;;;;;;;25.48;11.07;;;;;;;;;;5037853;28;20044;-67
2022/11/27 02:34:29;;;;;;;23.05;10.27;;;;;;;;;;5048731;28;20074;-67
2022/11/27 02:37:00;;;;;;;23.98;9.82;;;;;;;;;;5050769;28;20037;-67
2022/11/27 02:39:34;;;;;;;25.50;11.07;;;;;;;;;;5049653;28;20072;-67
2022/11/27 02:42:05;;;;;;;21.10;10.07;;;;;;;;;;5046299;28;20048;-67
2022/11/27 02:44:35;;;;;;;25.98;9.52;;;;;;;;;;5053114;28;20040;-67
2022/11/27 02:47:02;;;;;;;25.00;9.63;;;;;;;;;;5043467;28;20040;-67
2022/11/27 02:49:28;;;;;;;24.52;9.55;;;;;;;;;;5049205;28;20041;-67
2022/11/27 02:51:56;;;;;;;18.48;9.93;;;;;;;;;;5051094;28;20052;-67
2022/11/27 02:54:25;;;;;;;24.25;10.73;;;;;;;;;;5048433;28;20050;-67
2022/11/27 02:56:52;;;;;;;26.42;9.60;;;;;;;;;;5050941;28;20041;-66
2022/11/27 02:59:19;;;;;;;28.50;11.32;;;;;;;;;;5046211;28;20350;-67
2022/11/27 03:01:49;;;;;;;22.00;9.77;;;;;;;;;;5028184;28;20036;-67
2022/11/27 03:04:18;;;;;;;24.67;9.80;;;;;;;;;;5043699;28;20079;-67
2022/11/27 03:06:46;;;;;;;23.95;11.05;;;;;;;;;;5044391;28;20071;-67
2022/11/27 03:09:20;;;;;;;29.90;10.90;;;;;;;;;;5046489;28;20079;-67
2022/11/27 03:11:46;;;;;;;30.80;10.77;;;;;;;;;;5048336;28;20060;-66
2022/11/27 03:14:13;;;;;;;26.27;11.60;;;;;;;;;;5046036;28;20053;-67
2022/11/27 03:16:45;;;;;;;21.52;10.77;;;;;;;;;;5044220;28;20040;-66
2022/11/27 03:19:33;;;;;;;21.67;10.57;;;;;;;;;;5049341;28;20048;-67
2022/11/27 03:22:00;;;;;;;24.27;10.52;;;;;;;;;;5050315;28;20045;-67
2022/11/27 03:24:27;;;;;;;26.90;10.75;;;;;;;;;;5048810;28;20055;-67
2022/11/27 03:26:54;;;;;;;24.92;10.25;;;;;;;;;;5046765;28;20056;-68
2022/11/27 03:29:22;;;;;;;29.98;10.30;;;;;;;;;;5041585;28;20153;-65
2022/11/27 03:31:48;;;;;;;25.88;12.13;;;;;;;;;;5048551;28;20045;-67
2022/11/27 03:34:15;;;;;;;22.83;9.82;;;;;;;;;;5048809;28;20211;-67
2022/11/27 03:36:41;;;;;;;26.50;10.93;;;;;;;;;;5044012;28;20075;-67
2022/11/27 03:39:07;;;;;;;24.85;10.05;;;;;;;;;;5037331;28;20059;-66
2022/11/27 03:41:33;;;;;;;29.15;9.52;;;;;;;;;;5043767;28;20041;-66
2022/11/27 03:43:59;;;;;;;27.02;11.15;;;;;;;;;;5044877;28;20125;-67
2022/11/27 03:46:35;;;;;;;26.92;10.15;;;;;;;;;;5047976;28;20068;-67
2022/11/27 03:49:08;;;;;;;27.25;9.93;;;;;;;;;;5045218;28;20053;-68
2022/11/27 03:51:38;;;;;;;19.98;9.63;;;;;;;;;;5043201;28;20048;-69
2022/11/27 03:54:07;;;;;;;29.30;9.48;;;;;;;;;;5049444;28;20182;-69
2022/11/27 03:56:39;;;;;;;23.13;9.18;;;;;;;;;;5042220;28;21599;-67
2022/11/27 03:59:09;;;;;;;20.15;9.60;;;;;;;;;;5045219;28;20538;-67
2022/11/27 04:01:35;;;;;;;25.33;9.48;;;;;;;;;;5045471;28;20052;-66
2022/11/27 04:04:01;;;;;;;26.35;9.23;;;;;;;;;;5050255;28;20155;-66
2022/11/27 04:06:27;;;;;;;21.30;9.00;;;;;;;;;;5047935;28;20053;-67
2022/11/27 04:08:53;;;;;;;22.77;8.85;;;;;;;;;;5045624;28;20036;-66
2022/11/27 04:11:19;;;;;;;20.10;8.35;;;;;;;;;;5028861;28;20105;-66
2022/11/27 04:13:45;;;;;;;23.13;7.93;;;;;;;;;;5045469;28;20174;-68
2022/11/27 04:16:11;;;;;;;17.88;8.18;;;;;;;;;;5045358;28;20048;-69
2022/11/27 04:18:38;;;;;;;19.15;7.95;;;;;;;;;;5041706;28;20124;-68
2022/11/27 04:21:04;;;;;;;22.50;8.93;;;;;;;;;;5039729;28;20036;-67
2022/11/27 04:23:30;;;;;;;14.25;6.55;;;;;;;;;;5043979;28;20113;-68
2022/11/27 04:25:56;;;;;;;22.58;8.18;;;;;;;;;;5043857;28;20059;-67
2022/11/27 04:28:22;;;;;;;23.45;8.63;;;;;;;;;;5044412;28;20663;-67
2022/11/27 04:30:52;;;;;;;18.58;7.15;;;;;;;;;;5043392;28;20057;-66
2022/11/27 04:33:19;;;;;;;17.65;7.45;;;;;;;;;;5043104;28;20040;-67
2022/11/27 04:35:45;;;;;;;19.55;7.95;;;;;;;;;;5045140;28;20045;-67
2022/11/27 04:38:11;;;;;;;17.85;7.25;;;;;;;;;;5041339;28;20071;-67
2022/11/27 04:40:37;;;;;;;15.57;7.20;;;;;;;;;;5050843;28;20032;-66
2022/11/27 04:43:03;;;;;;;18.02;7.40;;;;;;;;;;5048841;28;20093;-68
2022/11/27 04:45:29;;;;;;;14.55;7.22;;;;;;;;;;5047817;28;20045;-67
2022/11/27 04:47:55;;;;;;;14.68;6.93;;;;;;;;;;5043564;28;20048;-67
2022/11/27 04:50:21;;;;;;;14.85;7.95;;;;;;;;;;5047926;28;20110;-68
2022/11/27 04:52:47;;;;;;;15.88;7.30;;;;;;;;;;5049880;28;20044;-67
2022/11/27 04:55:13;;;;;;;20.17;6.75;;;;;;;;;;5046502;28;20044;-67
2022/11/27 04:57:39;;;;;;;17.98;6.90;;;;;;;;;;5046001;28;20165;-67
2022/11/27 05:00:06;;;;;;;24.17;7.78;;;;;;;;;;5047164;28;20140;-67
2022/11/27 05:02:32;;;;;;;17.27;6.45;;;;;;;;;;5041462;28;20114;-67
2022/11/27 05:04:58;;;;;;;16.73;8.00;;;;;;;;;;5046513;28;20276;-66
2022/11/27 05:07:24;;;;;;;16.67;7.38;;;;;;;;;;5042464;28;20135;-66
2022/11/27 05:09:51;;;;;;;19.67;7.28;;;;;;;;;;5043253;28;20086;-67
2022/11/27 05:12:17;;;;;;;16.90;6.90;;;;;;;;;;5040978;28;20048;-65
2022/11/27 05:14:43;;;;;;;15.70;7.25;;;;;;;;;;5058290;28;20052;-68
2022/11/27 05:17:09;;;;;;;26.65;6.95;;;;;;;;;;5042336;28;20048;-68
2022/11/27 05:19:35;;;;;;;16.13;7.35;;;;;;;;;;5040563;28;20049;-67
2022/11/27 05:22:01;;;;;;;22.48;7.30;;;;;;;;;;5041018;28;20052;-67
2022/11/27 05:24:28;;;;;;;15.23;6.55;;;;;;;;;;5042398;28;20502;-67
2022/11/27 05:26:55;;;;;;;19.30;7.30;;;;;;;;;;5043972;28;20052;-67
2022/11/27 05:29:21;;;;;;;16.23;7.32;;;;;;;;;;5043605;28;20130;-67
2022/11/27 05:31:48;;;;;;;23.55;7.57;;;;;;;;;;5033631;28;20048;-67
2022/11/27 05:34:14;;;;;;;18.23;6.47;;;;;;;;;;5045892;28;20113;-67
2022/11/27 05:36:40;;;;;;;23.05;7.95;;;;;;;;;;5045645;28;20040;-67
2022/11/27 05:39:07;;;;;;;16.00;6.55;;;;;;;;;;5040441;28;20162;-66
2022/11/27 05:41:34;;;;;;;17.00;6.97;;;;;;;;;;5045782;28;20079;-68
2022/11/27 05:44:00;;;;;;;14.95;6.13;;;;;;;;;;5045923;28;20047;-67
2022/11/27 05:46:26;;;;;;;12.07;6.50;;;;;;;;;;5049358;28;20157;-68
2022/11/27 05:48:52;;;;;;;15.93;6.43;;;;;;;;;;5045449;28;20044;-67
2022/11/27 05:51:18;;;;;;;16.95;7.32;;;;;;;;;;5050643;28;20085;-68
2022/11/27 05:53:44;;;;;;;15.27;5.63;;;;;;;;;;5049142;28;20044;-67
2022/11/27 05:56:11;;;;;;;13.27;6.00;;;;;;;;;;5045713;28;20058;-68
2022/11/27 05:58:38;;;;;;;15.45;6.32;;;;;;;;;;5044172;28;20061;-68
2022/11/27 06:01:05;;;;;;;14.82;6.45;;;;;;;;;;5046405;28;20957;-68
2022/11/27 06:03:31;;;;;;;15.45;5.93;;;;;;;;;;5049882;28;20052;-67
2022/11/27 06:05:57;;;;;;;23.67;6.47;;;;;;;;;;5046478;28;20158;-67
2022/11/27 06:08:23;;;;;;;22.90;7.03;;;;;;;;;;5046792;28;20048;-68
2022/11/27 06:10:49;;;;;;;19.35;6.20;;;;;;;;;;5046576;28;20048;-68
2022/11/27 06:13:16;;;;;;;15.23;6.20;;;;;;;;;;5048181;28;22561;-67
2022/11/27 06:15:42;;;;;;;28.40;6.85;;;;;;;;;;5058288;28;21263;-68
2022/11/27 06:18:10;;;;;;;18.50;6.38;;;;;;;;;;5047103;28;20052;-67
2022/11/27 06:20:37;;;;;;;18.10;6.07;;;;;;;;;;5047559;28;20048;-68
2022/11/27 06:23:03;;;;;;;17.20;6.95;;;;;;;;;;5052625;28;20051;-67
2022/11/27 06:25:29;;;;;;;15.90;6.90;;;;;;;;;;5047284;28;20044;-68
2022/11/27 06:27:55;;;;;;;16.77;5.70;;;;;;;;;;5027513;28;20896;-68
2022/11/27 06:30:21;;;;;;;14.07;6.32;;;;;;;;;;5047491;28;20044;-68
2022/11/27 06:32:47;;;;;;;13.27;5.60;;;;;;;;;;5045729;28;20045;-67
2022/11/27 06:35:13;;;;;;;15.80;5.70;;;;;;;;;;5046861;28;20043;-68
2022/11/27 06:37:39;;;;;;;13.43;7.20;;;;;;;;;;5048076;28;20043;-68
2022/11/27 06:40:06;;;;;;;15.18;7.03;;;;;;;;;;5051033;28;20049;-68
2022/11/27 06:42:32;;;;;;;12.90;6.35;;;;;;;;;;5047549;28;20070;-68
2022/11/27 06:44:58;;;;;;;17.52;6.38;;;;;;;;;;5045593;28;20432;-67
2022/11/27 06:47:24;;;;;;;17.58;6.05;;;;;;;;;;5055866;28;20117;-68
2022/11/27 06:49:50;;;;;;;18.40;7.28;;;;;;;;;;5054719;28;20052;-68
2022/11/27 06:52:16;;;;;;;17.70;6.80;;;;;;;;;;5046848;28;20048;-68
2022/11/27 06:54:42;;;;;;;14.98;6.07;;;;;;;;;;5054590;28;20139;-69
2022/11/27 06:57:08;;;;;;;12.05;6.10;;;;;;;;;;5047630;28;20492;-68
2022/11/27 06:59:34;;;;;;;12.75;6.65;;;;;;;;;;5053289;28;20083;-67
2022/11/27 07:02:00;;;;;;;16.45;6.30;;;;;;;;;;5051343;28;20138;-68
2022/11/27 07:04:26;;;;;;;17.73;7.25;;;;;;;;;;5051082;28;20485;-68
2022/11/27 07:06:54;;;;;;;13.43;7.05;;;;;;;;;;5052310;28;20032;-68
2022/11/27 07:09:20;;;;;;;14.98;6.43;;;;;;;;;;5046041;28;20139;-68
2022/11/27 07:11:46;;;;;;;16.90;7.50;;;;;;;;;;5050210;28;20048;-68
2022/11/27 07:14:12;;;;;;;20.02;6.43;;;;;;;;;;5049500;28;20049;-68
2022/11/27 07:16:38;;;;;;;17.60;6.78;;;;;;;;;;5048510;28;20048;-68
2022/11/27 07:19:06;;;;;;;13.98;6.78;;;;;;;;;;5050681;28;20043;-68
2022/11/27 07:21:32;;;;;;;14.25;6.45;;;;;;;;;;5047030;28;20078;-69
2022/11/27 07:24:00;;;;;;;16.98;6.47;;;;;;;;;;5032419;28;21795;-69
2022/11/27 07:26:27;;;;;;;18.42;6.90;;;;;;;;;;5044172;28;20051;-70
2022/11/27 07:28:54;;;;;;;13.68;7.07;;;;;;;;;;5044508;28;20059;-68
2022/11/27 07:31:25;;;;;;;13.15;6.60;;;;;;;;;;5044526;28;20705;-68
2022/11/27 07:33:52;;;;;;;16.35;6.85;;;;;;;;;;5049817;28;20052;-68
2022/11/27 07:36:19;;;;;;;14.23;6.38;;;;;;;;;;5044689;28;20048;-68
2022/11/27 07:38:46;;;;;;;13.15;6.07;;;;;;;;;;5045606;28;20064;-68
2022/11/27 07:41:13;;;;;;;12.95;7.10;;;;;;;;;;5053207;28;20044;-68
2022/11/27 07:43:39;;;;;;;14.30;5.93;;;;;;;;;;5051293;28;20036;-68
2022/11/27 07:46:06;;;;;;;10.25;6.57;;;;;;;;;;5051109;28;20047;-68
2022/11/27 07:48:32;;;;;;;12.73;6.50;;;;;;;;;;5050530;28;20071;-68
2022/11/27 07:50:58;;;;;;;14.20;6.47;;;;;;;;;;5042366;28;20041;-68
2022/11/27 07:53:24;;;;;;;16.27;6.63;;;;;;;;;;5051038;28;20063;-67
2022/11/27 07:55:50;;;;;;;14.90;6.72;;;;;;;;;;5047519;28;20555;-70
2022/11/27 07:58:16;;;;;;;16.73;6.85;;;;;;;;;;5053744;28;20117;-65
2022/11/27 08:00:42;;;;;;;15.43;6.57;;;;;;;;;;5046413;28;20877;-69
2022/11/27 08:03:09;;;;;;;14.38;6.57;;;;;;;;;;5052717;28;20123;-68
2022/11/27 08:05:35;;;;;;;12.43;6.03;;;;;;;;;;5052296;28;20045;-68
2022/11/27 08:08:03;;;;;;;16.55;6.38;;;;;;;;;;5029121;28;20159;-69
2022/11/27 08:10:29;;;;;;;14.13;6.53;;;;;;;;;;5047729;28;21891;-68
2022/11/27 08:12:56;;;;;;;14.30;6.80;;;;;;;;;;5049321;28;20068;-68
2022/11/27 08:15:22;;;;;;;14.68;6.80;;;;;;;;;;5050246;28;20140;-69
2022/11/27 08:17:48;;;;;;;15.65;6.80;;;;;;;;;;5047615;28;20067;-68
2022/11/27 08:20:14;;;;;;;11.35;6.63;;;;;;;;;;5050915;28;20780;-68
2022/11/27 08:22:40;;;;;;;17.88;7.10;;;;;;;;;;5049986;28;20055;-68
2022/11/27 08:25:07;;;;;;;12.88;6.38;;;;;;;;;;5050576;28;20041;-68
2022/11/27 08:27:33;;;;;;;14.57;7.10;;;;;;;;;;5046306;28;20053;-67
2022/11/27 08:29:59;;;;;;;10.93;6.28;;;;;;;;;;5048514;28;20055;-67
2022/11/27 08:32:25;;;;;;;11.07;6.57;;;;;;;;;;5050339;28;20082;-68
2022/11/27 08:34:51;;;;;;;14.45;7.32;;;;;;;;;;5045055;28;20056;-67
2022/11/27 08:37:17;;;;;;;15.63;6.43;;;;;;;;;;5046356;28;20120;-68
2022/11/27 08:39:43;;;;;;;13.80;6.68;;;;;;;;;;5046211;28;20590;-68
2022/11/27 08:42:10;;;;;;;12.40;6.55;;;;;;;;;;5047691;28;20096;-65
2022/11/27 08:44:36;;;;;;;12.95;6.50;;;;;;;;;;5046186;28;20088;-67
2022/11/27 08:47:02;;;;;;;15.93;6.35;;;;;;;;;;5046524;28;20048;-69
2022/11/27 08:49:28;;;;;;;13.15;6.70;;;;;;;;;;5046831;28;20950;-68
2022/11/27 08:51:54;;;;;;;13.80;7.38;;;;;;;;;;5047506;28;20028;-70
2022/11/27 08:54:20;;;;;;;12.52;6.65;;;;;;;;;;5046546;28;20048;-69
2022/11/27 08:56:46;;;;;;;14.85;6.18;;;;;;;;;;5054027;28;20051;-69
2022/11/27 08:59:12;;;;;;;10.23;6.47;;;;;;;;;;5045870;28;20072;-69
2022/11/27 09:01:38;;;;;;;17.77;7.25;;;;;;;;;;5044513;28;20052;-69
2022/11/27 09:04:04;;;;;;;14.80;6.93;;;;;;;;;;5045238;28;20118;-69
2022/11/27 09:06:32;;;;;;;15.20;7.28;;;;;;;;;;5042486;28;20155;-69
2022/11/27 09:09:01;;;;;;;20.63;8.32;;;;;;;;;;5046165;28;20071;-69
2022/11/27 09:11:29;;;;;;;14.75;6.43;;;;;;;;;;5042169;28;20631;-69
2022/11/27 09:13:56;;;;;;;15.30;7.22;;;;;;;;;;5045788;28;20053;-69
2022/11/27 09:16:22;;;;;;;18.15;7.30;;;;;;;;;;5044342;28;20041;-69
2022/11/27 09:18:49;;;;;;;14.65;6.30;;;;;;;;;;5047578;28;20079;-67
2022/11/27 09:21:16;;;;;;;14.27;6.78;;;;;;;;;;5049758;28;20036;-67
2022/11/27 09:23:42;;;;;;;15.77;6.88;;;;;;;;;;5044675;28;20047;-67
2022/11/27 09:26:10;;;;;;;11.07;7.53;;;;;;;;;;5046504;28;20503;-68
2022/11/27 09:28:37;;;;;;;15.82;7.00;;;;;;;;;;5046885;28;20052;-67
2022/11/27 09:31:03;;;;;;;16.25;7.53;;;;;;;;;;5057663;28;20053;-68
2022/11/27 09:33:30;;;;;;;11.95;6.72;;;;;;;;;;5046791;28;20052;-67
2022/11/27 09:35:56;;;;;;;11.98;6.70;;;;;;;;;;5044672;28;20116;-67
2022/11/27 09:38:23;;;;;;;12.10;6.20;;;;;;;;;;5042630;28;20048;-67
2022/11/27 09:40:50;;;;;;;16.35;6.97;;;;;;;;;;5044656;28;20051;-68
2022/11/27 09:43:17;;;;;;;15.60;6.95;;;;;;;;;;5041828;28;20040;-67
2022/11/27 09:45:53;;;;;;;13.05;7.10;;;;;;;;;;5043504;28;20071;-67
2022/11/27 09:48:39;;;;;;;12.73;6.63;;;;;;;;;;5041329;28;20048;-68
2022/11/27 09:51:10;;;;;;;13.10;7.88;;;;;;;;;;5044237;28;20048;-67
2022/11/27 09:53:39;;;;;;;13.48;7.57;;;;;;;;;;5044014;28;20165;-69
2022/11/27 09:56:08;;;;;;;13.85;7.43;;;;;;;;;;5044849;28;20048;-69
2022/11/27 09:58:42;;;;;;;15.13;7.00;;;;;;;;;;5045186;28;20776;-67
2022/11/27 10:01:12;;;;;;;17.42;7.35;;;;;;;;;;5048815;28;20060;-66
2022/11/27 10:03:39;;;;;;;12.63;7.18;;;;;;;;;;5046890;28;20520;-67
2022/11/27 10:06:11;;;;;;;13.77;7.60;;;;;;;;;;5050011;28;20045;-66
2022/11/27 10:08:40;;;;;;;19.58;7.63;;;;;;;;;;5045236;28;20075;-67
2022/11/27 10:11:18;;;;;;;10.68;7.28;;;;;;;;;;5039187;28;20094;-67
2022/11/27 10:13:50;;;;;;;14.98;7.68;;;;;;;;;;5045145;28;20190;-67
2022/11/27 10:16:23;;;;;;;17.23;8.07;;;;;;;;;;5042384;28;20048;-66
2022/11/27 10:18:55;;;;;;;17.48;7.20;;;;;;;;;;5042108;28;20053;-67
2022/11/27 10:21:27;;;;;;;14.55;8.43;;;;;;;;;;5043741;28;20494;-67
2022/11/27 10:23:58;;;;;;;19.13;8.27;;;;;;;;;;5045141;28;20102;-67
2022/11/27 10:26:27;;;;;;;14.45;8.50;;;;;;;;;;5046799;28;20044;-66
2022/11/27 10:29:01;;;;;;;17.50;8.25;;;;;;;;;;5044182;28;20044;-67
2022/11/27 10:31:36;;;;;;;25.00;8.77;;;;;;;;;;5046004;28;20052;-67
2022/11/27 10:34:04;;;;;;;18.83;9.30;;;;;;;;;;5044728;28;20048;-67
2022/11/27 10:36:35;;;;;;;21.98;9.10;;;;;;;;;;5026264;28;20079;-69
2022/11/27 10:39:02;;;;;;;17.92;8.70;;;;;;;;;;5040367;28;20631;-68
2022/11/27 10:41:33;;;;;;;19.65;8.70;;;;;;;;;;5048888;28;20048;-68
2022/11/27 10:44:03;;;;;;;20.05;8.77;;;;;;;;;;5043404;28;20045;-68
2022/11/27 10:46:36;;;;;;;18.67;8.73;;;;;;;;;;5029971;28;20057;-69
2022/11/27 10:49:02;;;;;;;17.45;8.57;;;;;;;;;;5046883;28;20611;-68
2022/11/27 10:51:30;;;;;;;17.27;9.23;;;;;;;;;;5040155;28;20056;-68
2022/11/27 10:53:58;;;;;;;15.48;8.20;;;;;;;;;;5039759;28;20044;-68
2022/11/27 10:56:43;;;;;;;14.93;8.63;;;;;;;;;;5047424;28;20045;-68
2022/11/27 10:59:11;;;;;;;16.20;9.50;;;;;;;;;;5058542;28;20053;-68
2022/11/27 11:01:44;;;;;;;16.70;8.93;;;;;;;;;;5041019;28;20044;-69
2022/11/27 11:04:12;;;;;;;18.13;9.48;;;;;;;;;;5042043;28;20044;-67
2022/11/27 11:06:40;;;;;;;17.13;7.55;;;;;;;;;;5041313;28;20053;-68
2022/11/27 11:09:12;;;;;;;16.83;9.07;;;;;;;;;;5040489;28;20049;-69
2022/11/27 11:11:38;;;;;;;16.27;8.68;;;;;;;;;;5045132;28;23333;-68
2022/11/27 11:14:14;;;;;;;17.95;8.25;;;;;;;;;;5043940;28;20060;-68
2022/11/27 11:16:42;;;;;;;19.05;9.18;;;;;;;;;;5041437;28;20103;-69
2022/11/27 11:19:20;;;;;;;20.48;8.15;;;;;;;;;;5042580;28;20044;-68
2022/11/27 11:21:46;;;;;;;20.10;9.32;;;;;;;;;;5042264;28;20049;-69
2022/11/27 11:24:12;;;;;;;20.55;11.05;;;;;;;;;;5045655;28;20051;-69
2022/11/27 11:26:40;;;;;;;19.52;9.57;;;;;;;;;;5040064;28;20076;-70
2022/11/27 11:29:15;;;;;;;16.77;9.52;;;;;;;;;;5043244;28;20044;-69
2022/11/27 11:31:41;;;;;;;15.45;8.88;;;;;;;;;;5044546;28;20076;-70
2022/11/27 11:34:22;;;;;;;13.98;9.18;;;;;;;;;;5046476;28;20118;-69
2022/11/27 11:37:02;;;;;;;15.13;8.82;;;;;;;;;;5043886;28;20060;-69
2022/11/27 11:39:33;;;;;;;22.65;9.30;;;;;;;;;;5047161;28;20052;-69
2022/11/27 11:41:59;;;;;;;21.13;9.23;;;;;;;;;;5041786;28;20116;-69
2022/11/27 11:44:31;;;;;;;18.65;8.65;;;;;;;;;;5041989;28;20045;-69
2022/11/27 11:46:57;;;;;;;16.38;8.38;;;;;;;;;;5045376;28;20044;-69
2022/11/27 11:49:24;;;;;;;14.55;6.97;;;;;;;;;;5043632;28;20051;-68
2022/11/27 11:52:09;;;;;;;15.27;8.32;;;;;;;;;;5043085;28;20045;-69
2022/11/27 11:54:35;;;;;;;17.27;7.75;;;;;;;;;;5045230;28;20045;-69
2022/11/27 11:57:02;;;;;;;15.13;9.00;;;;;;;;;;5047721;28;20130;-69
2022/11/27 11:59:40;;;;;;;14.15;7.50;;;;;;;;;;5053533;28;20049;-68
2022/11/27 12:02:19;;;;;;;14.27;8.95;;;;;;;;;;5051411;28;20060;-68
2022/11/27 12:04:45;;;;;;;12.98;8.63;;;;;;;;;;5050482;28;20635;-68
2022/11/27 12:07:28;;;;;;;18.77;9.68;;;;;;;;;;5054787;28;20118;-68
2022/11/27 12:09:59;;;;;;;17.95;8.45;;;;;;;;;;5057365;28;20063;-68
2022/11/27 12:12:43;;;;;;;14.75;8.68;;;;;;;;;;5057932;28;20041;-68
2022/11/27 12:15:24;;;;;;;15.52;8.50;;;;;;;;;;5057497;28;20044;-67
2022/11/27 12:17:51;;;;;;;15.27;8.77;;;;;;;;;;5051872;28;20052;-68
2022/11/27 12:20:35;;;;;;;13.23;8.20;;;;;;;;;;5055998;28;20054;-68
2022/11/27 12:23:20;;;;;;;17.80;9.02;;;;;;;;;;5053927;28;20053;-67
2022/11/27 12:25:56;;;;;;;17.25;9.02;;;;;;;;;;5042896;28;20113;-70
2022/11/27 12:28:36;;;;;;;14.10;8.80;;;;;;;;;;5051947;28;20044;-70
2022/11/27 12:31:09;;;;;;;13.43;9.15;;;;;;;;;;5037290;28;21653;-69
2022/11/27 12:33:54;;;;;;;19.95;9.73;;;;;;;;;;5049677;28;20114;-70
2022/11/27 12:36:40;;;;;;;13.93;7.60;;;;;;;;;;5055860;28;20063;-69
2022/11/27 12:39:21;;;;;;;20.70;9.35;;;;;;;;;;5051391;28;20041;-70
2022/11/27 12:42:00;;;;;;;18.55;9.60;;;;;;;;;;5049162;28;20049;-71
2022/11/27 12:44:49;;;;;;;16.38;8.75;;;;;;;;;;5052156;28;20069;-70
2022/11/27 12:47:18;;;;;;;17.02;9.30;;;;;;;;;;5022427;28;20060;-70
2022/11/27 12:49:46;;;;;;;16.00;9.18;;;;;;;;;;5050253;28;20779;-70
2022/11/27 12:52:20;;;;;;;20.63;10.32;;;;;;;;;;5052744;28;20060;-69
2022/11/27 12:54:46;;;;;;;;;;;;;;;;;;5041958;28;20075;-71
2022/11/27 12:57:17;;;;;;;23.27;11.50;;;;;;;;;;5042828;28;20486;-68
2022/11/27 12:59:47;;;;;;;22.52;9.95;;;;;;;;;;5045148;28;20116;-69
2022/11/27 13:02:13;;;;;;;17.23;10.15;;;;;;;;;;5043361;28;20052;-69
2022/11/27 13:07:37;;;;;;;16.42;8.70;;;;;;;;;;4982768;28;20065;-71
2022/11/27 13:10:03;;;;;;;19.00;10.68;;;;;;;;;;4989524;28;20056;-72
2022/11/27 13:12:33;;;;;;;14.60;9.55;;;;;;;;;;4995615;28;20072;-72
2022/11/27 13:15:18;;;;;;;21.13;10.88;;;;;;;;;;4991678;28;20046;-72
2022/11/27 13:17:45;;;;;;;15.30;7.85;;;;;;;;;;4990081;28;20567;-71
2022/11/27 13:20:16;;;;;;;14.05;7.70;;;;;;;;;;4987439;28;20041;-71
2022/11/27 13:22:42;;;;;;;16.23;8.50;;;;;;;;;;4992367;28;20128;-72
2022/11/27 13:25:13;;;;;;;18.83;8.88;;;;;;;;;;4987854;28;20119;-72
2022/11/27 13:27:42;;;;;;;18.98;9.23;;;;;;;;;;4987944;28;20080;-71
2022/11/27 13:30:09;;;;;;;17.30;8.60;;;;;;;;;;4986952;28;20181;-70
2022/11/27 13:32:46;;;;;;;16.58;9.13;;;;;;;;;;4983285;28;20048;-71
2022/11/27 13:35:21;;;;;;;16.17;8.38;;;;;;;;;;4987552;28;20132;-71
2022/11/27 13:37:49;;;;;;;16.98;9.43;;;;;;;;;;4987536;28;20090;-71
2022/11/27 13:40:21;;;;;;;12.98;8.13;;;;;;;;;;4991382;28;20069;-71
2022/11/27 13:42:54;;;;;;;21.50;10.93;;;;;;;;;;4980942;28;20049;-71
2022/11/27 13:45:22;;;;;;;22.50;10.07;;;;;;;;;;4988597;28;20130;-71
2022/11/27 13:47:49;;;;;;;14.50;8.82;;;;;;;;;;4990611;28;20052;-71
2022/11/27 13:50:17;;;;;;;15.93;8.77;;;;;;;;;;4993031;28;20046;-71
2022/11/27 13:52:58;;;;;;;14.90;8.80;;;;;;;;;;4988774;28;20080;-71
2022/11/27 13:55:29;;;;;;;14.38;9.57;;;;;;;;;;4991424;28;20141;-71
2022/11/27 13:57:56;;;;;;;17.67;9.88;;;;;;;;;;4968260;28;22327;-71
2022/11/27 14:00:43;;;;;;;19.88;9.05;;;;;;;;;;4990919;28;20132;-71
2022/11/27 14:03:26;;;;;;;12.82;9.48;;;;;;;;;;4971546;28;20477;-71
2022/11/27 14:05:52;;;;;;;18.00;10.02;;;;;;;;;;4989101;28;20065;-71
2022/11/27 14:08:30;;;;;;;14.82;9.32;;;;;;;;;;4989286;28;20057;-70
2022/11/27 14:11:07;;;;;;;21.20;9.93;;;;;;;;;;4987510;28;20056;-70
2022/11/27 14:13:36;;;;;;;16.30;8.90;;;;;;;;;;4989823;28;20691;-70
2022/11/27 14:16:03;;;;;;;17.38;9.82;;;;;;;;;;4985061;28;20033;-70
2022/11/27 14:18:30;;;;;;;17.10;9.48;;;;;;;;;;4990279;28;20042;-70
2022/11/27 14:21:01;;;;;;;16.42;9.60;;;;;;;;;;4972440;28;20038;-70
2022/11/27 14:23:32;;;;;;;22.15;12.45;;;;;;;;;;4990837;28;20073;-70
2022/11/27 14:26:24;;;;;;;16.00;10.02;;;;;;;;;;4988350;28;20049;-71
2022/11/27 14:28:54;;;;;;;18.85;10.02;;;;;;;;;;4986088;28;21327;-69
2022/11/27 14:31:22;;;;;;;18.92;12.38;;;;;;;;;;4985522;28;20077;-72
2022/11/27 14:33:48;;;;;;;20.33;9.55;;;;;;;;;;4987922;28;20046;-70
2022/11/27 14:36:22;;;;;;;16.17;9.27;;;;;;;;;;4988550;28;20196;-70
2022/11/27 14:38:48;;;;;;;14.00;10.57;;;;;;;;;;4990090;28;20052;-69